sensor_id;sensor_type;location;lat;lon;timestamp;temperature;humidity
11647;DHT22;5880;52.342;9.662;2022-08-24T00:01:16;25.10;33.80
11647;DHT22;5880;52.342;9.662;2022-08-24T00:03:43;25.10;34.40
11647;DHT22;5880;52.342;9.662;2022-08-24T00:06:12;25.10;33.80
11647;DHT22;5880;52.342;9.662;2022-08-24T00:08:40;25.10;34.60
11647;DHT22;5880;52.342;9.662;2022-08-24T00:11:07;25.00;33.90
11647;DHT22;5880;52.342;9.662;2022-08-24T00:13:34;25.10;33.90
11647;DHT22;5880;52.342;9.662;2022-08-24T00:16:00;25.00;34.00
11647;DHT22;5880;52.342;9.662;2022-08-24T00:18:27;25.00;34.10
11647;DHT22;5880;52.342;9.662;2022-08-24T00:20:53;25.00;34.20
11647;DHT22;5880;52.342;9.662;2022-08-24T00:23:18;24.90;34.20
11647;DHT22;5880;52.342;9.662;2022-08-24T00:25:44;24.90;34.30
11647;DHT22;5880;52.342;9.662;2022-08-24T00:28:11;24.90;34.40
11647;DHT22;5880;52.342;9.662;2022-08-24T00:30:36;24.90;34.40
11647;DHT22;5880;52.342;9.662;2022-08-24T00:33:02;24.90;34.50
11647;DHT22;5880;52.342;9.662;2022-08-24T00:35:29;24.80;34.60
11647;DHT22;5880;52.342;9.662;2022-08-24T00:37:55;24.80;34.70
11647;DHT22;5880;52.342;9.662;2022-08-24T00:40:35;24.80;34.70
11647;DHT22;5880;52.342;9.662;2022-08-24T00:43:04;24.80;35.40
11647;DHT22;5880;52.342;9.662;2022-08-24T00:45:37;24.70;35.00
11647;DHT22;5880;52.342;9.662;2022-08-24T00:48:20;24.70;35.40
11647;DHT22;5880;52.342;9.662;2022-08-24T00:51:03;24.70;35.40
11647;DHT22;5880;52.342;9.662;2022-08-24T00:53:48;24.70;35.10
11647;DHT22;5880;52.342;9.662;2022-08-24T00:56:26;24.70;35.50
11647;DHT22;5880;52.342;9.662;2022-08-24T00:59:04;24.60;35.30
11647;DHT22;5880;52.342;9.662;2022-08-24T01:01:34;24.60;35.30
11647;DHT22;5880;52.342;9.662;2022-08-24T01:04:01;24.60;35.30
11647;DHT22;5880;52.342;9.662;2022-08-24T01:06:28;24.50;35.30
11647;DHT22;5880;52.342;9.662;2022-08-24T01:08:54;24.60;35.30
11647;DHT22;5880;52.342;9.662;2022-08-24T01:11:22;24.40;35.30
11647;DHT22;5880;52.342;9.662;2022-08-24T01:13:52;24.40;35.50
11647;DHT22;5880;52.342;9.662;2022-08-24T01:16:19;24.50;35.60
11647;DHT22;5880;52.342;9.662;2022-08-24T01:19:21;24.40;35.50
11647;DHT22;5880;52.342;9.662;2022-08-24T01:22:12;24.30;36.00
11647;DHT22;5880;52.342;9.662;2022-08-24T01:24:46;24.30;36.20
11647;DHT22;5880;52.342;9.662;2022-08-24T01:27:13;24.30;35.70
11647;DHT22;5880;52.342;9.662;2022-08-24T01:29:40;24.20;35.70
11647;DHT22;5880;52.342;9.662;2022-08-24T01:32:08;24.20;35.70
11647;DHT22;5880;52.342;9.662;2022-08-24T01:34:35;24.30;36.20
11647;DHT22;5880;52.342;9.662;2022-08-24T01:37:01;24.10;35.80
11647;DHT22;5880;52.342;9.662;2022-08-24T01:39:29;24.10;35.90
11647;DHT22;5880;52.342;9.662;2022-08-24T01:41:58;24.10;36.10
11647;DHT22;5880;52.342;9.662;2022-08-24T01:44:27;24.00;36.00
11647;DHT22;5880;52.342;9.662;2022-08-24T01:46:55;24.00;36.30
11647;DHT22;5880;52.342;9.662;2022-08-24T01:49:27;24.00;36.30
11647;DHT22;5880;52.342;9.662;2022-08-24T01:51:55;23.90;36.40
11647;DHT22;5880;52.342;9.662;2022-08-24T01:54:21;23.90;36.40
11647;DHT22;5880;52.342;9.662;2022-08-24T01:56:47;23.90;36.40
11647;DHT22;5880;52.342;9.662;2022-08-24T01:59:13;23.90;36.40
11647;DHT22;5880;52.342;9.662;2022-08-24T02:01:41;23.90;36.60
11647;DHT22;5880;52.342;9.662;2022-08-24T02:04:10;23.80;36.60
11647;DHT22;5880;52.342;9.662;2022-08-24T02:06:36;23.80;37.20
11647;DHT22;5880;52.342;9.662;2022-08-24T02:09:04;23.80;36.70
11647;DHT22;5880;52.342;9.662;2022-08-24T02:11:30;23.70;36.80
11647;DHT22;5880;52.342;9.662;2022-08-24T02:13:56;23.70;36.80
11647;DHT22;5880;52.342;9.662;2022-08-24T02:16:22;23.70;36.90
11647;DHT22;5880;52.342;9.662;2022-08-24T02:18:48;23.70;37.10
11647;DHT22;5880;52.342;9.662;2022-08-24T02:21:14;23.70;37.10
11647;DHT22;5880;52.342;9.662;2022-08-24T02:23:41;23.60;37.60
11647;DHT22;5880;52.342;9.662;2022-08-24T02:26:09;23.60;37.00
11647;DHT22;5880;52.342;9.662;2022-08-24T02:28:36;23.60;37.10
11647;DHT22;5880;52.342;9.662;2022-08-24T02:31:04;23.60;37.80
11647;DHT22;5880;52.342;9.662;2022-08-24T02:33:33;23.60;37.20
11647;DHT22;5880;52.342;9.662;2022-08-24T02:35:59;23.50;37.30
11647;DHT22;5880;52.342;9.662;2022-08-24T02:38:26;23.50;37.30
11647;DHT22;5880;52.342;9.662;2022-08-24T02:40:53;23.50;37.30
11647;DHT22;5880;52.342;9.662;2022-08-24T02:43:18;23.50;37.50
11647;DHT22;5880;52.342;9.662;2022-08-24T02:45:45;23.50;38.10
11647;DHT22;5880;52.342;9.662;2022-08-24T02:48:12;23.40;37.50
11647;DHT22;5880;52.342;9.662;2022-08-24T02:50:44;23.40;37.60
11647;DHT22;5880;52.342;9.662;2022-08-24T02:53:13;23.40;37.90
11647;DHT22;5880;52.342;9.662;2022-08-24T02:55:41;23.30;37.70
11647;DHT22;5880;52.342;9.662;2022-08-24T02:58:09;23.40;37.80
11647;DHT22;5880;52.342;9.662;2022-08-24T03:00:37;23.30;37.80
11647;DHT22;5880;52.342;9.662;2022-08-24T03:03:05;23.30;37.90
11647;DHT22;5880;52.342;9.662;2022-08-24T03:05:32;23.30;37.90
11647;DHT22;5880;52.342;9.662;2022-08-24T03:07:58;23.30;38.00
11647;DHT22;5880;52.342;9.662;2022-08-24T03:10:24;23.20;38.00
11647;DHT22;5880;52.342;9.662;2022-08-24T03:12:50;23.20;38.00
11647;DHT22;5880;52.342;9.662;2022-08-24T03:15:18;23.20;38.10
11647;DHT22;5880;52.342;9.662;2022-08-24T03:17:47;23.20;38.20
11647;DHT22;5880;52.342;9.662;2022-08-24T03:20:20;23.20;38.20
11647;DHT22;5880;52.342;9.662;2022-08-24T03:22:47;23.20;38.70
11647;DHT22;5880;52.342;9.662;2022-08-24T03:25:15;23.10;38.30
11647;DHT22;5880;52.342;9.662;2022-08-24T03:27:42;23.10;38.60
11647;DHT22;5880;52.342;9.662;2022-08-24T03:30:10;23.10;38.40
11647;DHT22;5880;52.342;9.662;2022-08-24T03:32:39;23.10;38.60
11647;DHT22;5880;52.342;9.662;2022-08-24T03:35:07;23.10;38.60
11647;DHT22;5880;52.342;9.662;2022-08-24T03:37:34;23.10;38.80
11647;DHT22;5880;52.342;9.662;2022-08-24T03:39:59;23.10;38.70
11647;DHT22;5880;52.342;9.662;2022-08-24T03:42:25;23.10;38.80
11647;DHT22;5880;52.342;9.662;2022-08-24T03:44:51;23.10;38.80
11647;DHT22;5880;52.342;9.662;2022-08-24T03:47:16;23.00;38.80
11647;DHT22;5880;52.342;9.662;2022-08-24T03:49:44;23.00;38.90
11647;DHT22;5880;52.342;9.662;2022-08-24T03:52:10;23.00;39.00
11647;DHT22;5880;52.342;9.662;2022-08-24T03:54:35;23.00;39.00
11647;DHT22;5880;52.342;9.662;2022-08-24T03:57:01;23.00;39.10
11647;DHT22;5880;52.342;9.662;2022-08-24T03:59:27;23.00;39.10
11647;DHT22;5880;52.342;9.662;2022-08-24T04:01:52;22.90;39.20
11647;DHT22;5880;52.342;9.662;2022-08-24T04:04:20;22.90;39.30
11647;DHT22;5880;52.342;9.662;2022-08-24T04:06:46;22.90;39.40
11647;DHT22;5880;52.342;9.662;2022-08-24T04:09:13;22.90;39.60
11647;DHT22;5880;52.342;9.662;2022-08-24T04:11:40;22.80;39.70
11647;DHT22;5880;52.342;9.662;2022-08-24T04:14:09;22.90;40.00
11647;DHT22;5880;52.342;9.662;2022-08-24T04:16:35;22.90;40.00
11647;DHT22;5880;52.342;9.662;2022-08-24T04:19:01;22.80;39.80
11647;DHT22;5880;52.342;9.662;2022-08-24T04:21:33;22.80;39.80
11647;DHT22;5880;52.342;9.662;2022-08-24T04:24:01;22.80;40.60
11647;DHT22;5880;52.342;9.662;2022-08-24T04:26:29;22.80;40.00
11647;DHT22;5880;52.342;9.662;2022-08-24T04:28:56;22.80;40.30
11647;DHT22;5880;52.342;9.662;2022-08-24T04:31:23;22.70;40.30
11647;DHT22;5880;52.342;9.662;2022-08-24T04:33:51;22.80;40.30
11647;DHT22;5880;52.342;9.662;2022-08-24T04:36:19;22.70;40.30
11647;DHT22;5880;52.342;9.662;2022-08-24T04:38:46;22.70;40.40
11647;DHT22;5880;52.342;9.662;2022-08-24T04:41:15;22.70;40.30
11647;DHT22;5880;52.342;9.662;2022-08-24T04:43:44;22.70;40.70
11647;DHT22;5880;52.342;9.662;2022-08-24T04:46:13;22.50;40.40
11647;DHT22;5880;52.342;9.662;2022-08-24T04:48:41;22.70;40.70
11647;DHT22;5880;52.342;9.662;2022-08-24T04:51:09;22.70;40.80
11647;DHT22;5880;52.342;9.662;2022-08-24T04:53:38;22.70;41.10
11647;DHT22;5880;52.342;9.662;2022-08-24T04:56:20;22.70;41.20
11647;DHT22;5880;52.342;9.662;2022-08-24T04:58:48;22.70;41.80
11647;DHT22;5880;52.342;9.662;2022-08-24T05:01:19;22.70;41.20
11647;DHT22;5880;52.342;9.662;2022-08-24T05:03:49;22.70;41.60
11647;DHT22;5880;52.342;9.662;2022-08-24T05:06:17;22.70;41.40
11647;DHT22;5880;52.342;9.662;2022-08-24T05:08:44;22.70;41.30
11647;DHT22;5880;52.342;9.662;2022-08-24T05:11:12;22.70;41.40
11647;DHT22;5880;52.342;9.662;2022-08-24T05:13:39;22.70;41.40
11647;DHT22;5880;52.342;9.662;2022-08-24T05:16:12;22.70;41.60
11647;DHT22;5880;52.342;9.662;2022-08-24T05:18:40;22.70;41.80
11647;DHT22;5880;52.342;9.662;2022-08-24T05:21:08;22.70;41.60
11647;DHT22;5880;52.342;9.662;2022-08-24T05:23:37;22.70;41.90
11647;DHT22;5880;52.342;9.662;2022-08-24T05:26:05;22.80;41.90
11647;DHT22;5880;52.342;9.662;2022-08-24T05:28:36;22.80;41.80
11647;DHT22;5880;52.342;9.662;2022-08-24T05:31:17;22.80;41.80
11647;DHT22;5880;52.342;9.662;2022-08-24T05:33:45;22.90;42.60
11647;DHT22;5880;52.342;9.662;2022-08-24T05:36:18;22.90;42.00
11647;DHT22;5880;52.342;9.662;2022-08-24T05:38:53;23.00;42.60
11647;DHT22;5880;52.342;9.662;2022-08-24T05:41:21;23.00;42.50
11647;DHT22;5880;52.342;9.662;2022-08-24T05:43:48;23.10;42.40
11647;DHT22;5880;52.342;9.662;2022-08-24T05:46:14;23.10;42.30
11647;DHT22;5880;52.342;9.662;2022-08-24T05:48:40;23.20;42.30
11647;DHT22;5880;52.342;9.662;2022-08-24T05:51:06;23.30;42.50
11647;DHT22;5880;52.342;9.662;2022-08-24T05:53:33;23.40;42.50
11647;DHT22;5880;52.342;9.662;2022-08-24T05:56:07;23.30;42.50
11647;DHT22;5880;52.342;9.662;2022-08-24T05:58:36;23.40;42.90
11647;DHT22;5880;52.342;9.662;2022-08-24T06:03:33;23.50;42.90
11647;DHT22;5880;52.342;9.662;2022-08-24T06:06:01;23.60;42.70
11647;DHT22;5880;52.342;9.662;2022-08-24T06:08:28;23.60;42.80
11647;DHT22;5880;52.342;9.662;2022-08-24T06:10:55;23.70;42.80
11647;DHT22;5880;52.342;9.662;2022-08-24T06:13:21;23.70;42.90
11647;DHT22;5880;52.342;9.662;2022-08-24T06:15:47;23.70;42.80
11647;DHT22;5880;52.342;9.662;2022-08-24T06:18:13;23.80;43.00
11647;DHT22;5880;52.342;9.662;2022-08-24T06:20:41;23.90;43.10
11647;DHT22;5880;52.342;9.662;2022-08-24T06:23:08;23.90;43.20
11647;DHT22;5880;52.342;9.662;2022-08-24T06:25:37;24.00;43.20
11647;DHT22;5880;52.342;9.662;2022-08-24T06:28:23;24.10;43.40
11647;DHT22;5880;52.342;9.662;2022-08-24T06:30:50;24.20;43.20
11647;DHT22;5880;52.342;9.662;2022-08-24T06:33:24;24.20;43.40
11647;DHT22;5880;52.342;9.662;2022-08-24T06:35:50;24.30;43.60
11647;DHT22;5880;52.342;9.662;2022-08-24T06:38:16;24.40;43.70
11647;DHT22;5880;52.342;9.662;2022-08-24T06:40:41;24.60;43.60
11647;DHT22;5880;52.342;9.662;2022-08-24T06:43:07;24.70;43.60
11647;DHT22;5880;52.342;9.662;2022-08-24T06:45:32;24.80;43.40
11647;DHT22;5880;52.342;9.662;2022-08-24T06:47:58;24.90;43.10
11647;DHT22;5880;52.342;9.662;2022-08-24T06:50:24;24.90;42.90
11647;DHT22;5880;52.342;9.662;2022-08-24T06:52:50;25.00;42.50
11647;DHT22;5880;52.342;9.662;2022-08-24T06:55:15;25.00;42.30
11647;DHT22;5880;52.342;9.662;2022-08-24T06:57:41;25.10;42.30
11647;DHT22;5880;52.342;9.662;2022-08-24T07:00:07;25.10;42.20
11647;DHT22;5880;52.342;9.662;2022-08-24T07:02:34;25.20;42.30
11647;DHT22;5880;52.342;9.662;2022-08-24T07:05:00;25.20;42.20
11647;DHT22;5880;52.342;9.662;2022-08-24T07:07:26;25.20;42.30
11647;DHT22;5880;52.342;9.662;2022-08-24T07:09:52;25.30;42.20
11647;DHT22;5880;52.342;9.662;2022-08-24T07:12:17;25.30;42.30
11647;DHT22;5880;52.342;9.662;2022-08-24T07:14:43;25.40;42.20
11647;DHT22;5880;52.342;9.662;2022-08-24T07:17:09;25.40;42.10
11647;DHT22;5880;52.342;9.662;2022-08-24T07:19:34;25.50;42.10
11647;DHT22;5880;52.342;9.662;2022-08-24T07:22:00;25.50;42.20
11647;DHT22;5880;52.342;9.662;2022-08-24T07:24:26;25.50;42.10
11647;DHT22;5880;52.342;9.662;2022-08-24T07:26:52;25.60;42.30
11647;DHT22;5880;52.342;9.662;2022-08-24T07:29:17;25.60;43.00
11647;DHT22;5880;52.342;9.662;2022-08-24T07:31:43;25.70;42.80
11647;DHT22;5880;52.342;9.662;2022-08-24T07:34:10;25.80;41.90
11647;DHT22;5880;52.342;9.662;2022-08-24T07:36:37;25.90;42.00
11647;DHT22;5880;52.342;9.662;2022-08-24T07:39:05;25.90;42.00
11647;DHT22;5880;52.342;9.662;2022-08-24T07:41:34;26.00;42.30
11647;DHT22;5880;52.342;9.662;2022-08-24T07:44:03;26.10;42.10
11647;DHT22;5880;52.342;9.662;2022-08-24T07:46:29;26.10;42.00
11647;DHT22;5880;52.342;9.662;2022-08-24T07:48:54;26.20;41.90
11647;DHT22;5880;52.342;9.662;2022-08-24T07:51:20;26.30;41.80
11647;DHT22;5880;52.342;9.662;2022-08-24T07:53:46;26.40;41.60
11647;DHT22;5880;52.342;9.662;2022-08-24T07:56:12;26.40;41.40
11647;DHT22;5880;52.342;9.662;2022-08-24T07:58:38;26.50;41.20
11647;DHT22;5880;52.342;9.662;2022-08-24T08:01:05;26.50;41.10
11647;DHT22;5880;52.342;9.662;2022-08-24T08:03:32;26.60;41.10
11647;DHT22;5880;52.342;9.662;2022-08-24T08:06:02;26.70;41.00
11647;DHT22;5880;52.342;9.662;2022-08-24T08:08:30;26.70;40.80
11647;DHT22;5880;52.342;9.662;2022-08-24T08:10:58;26.80;40.80
11647;DHT22;5880;52.342;9.662;2022-08-24T08:13:26;26.90;40.70
11647;DHT22;5880;52.342;9.662;2022-08-24T08:15:51;26.90;40.50
11647;DHT22;5880;52.342;9.662;2022-08-24T08:18:17;27.00;40.90
11647;DHT22;5880;52.342;9.662;2022-08-24T08:20:44;27.00;40.80
11647;DHT22;5880;52.342;9.662;2022-08-24T08:23:10;27.10;40.60
11647;DHT22;5880;52.342;9.662;2022-08-24T08:25:55;27.20;40.60
11647;DHT22;5880;52.342;9.662;2022-08-24T08:28:27;27.20;40.50
11647;DHT22;5880;52.342;9.662;2022-08-24T08:31:01;27.20;40.10
11647;DHT22;5880;52.342;9.662;2022-08-24T08:33:28;27.30;39.80
11647;DHT22;5880;52.342;9.662;2022-08-24T08:38:38;27.40;39.70
11647;DHT22;5880;52.342;9.662;2022-08-24T08:43:49;27.50;39.30
11647;DHT22;5880;52.342;9.662;2022-08-24T08:46:49;27.50;39.40
11647;DHT22;5880;52.342;9.662;2022-08-24T08:49:41;27.50;39.30
11647;DHT22;5880;52.342;9.662;2022-08-24T08:55:47;27.70;39.00
11647;DHT22;5880;52.342;9.662;2022-08-24T08:59:32;27.70;39.00
11647;DHT22;5880;52.342;9.662;2022-08-24T09:01:34;27.80;39.10
11647;DHT22;5880;52.342;9.662;2022-08-24T09:07:38;27.90;38.50
11647;DHT22;5880;52.342;9.662;2022-08-24T09:10:58;28.00;39.10
11647;DHT22;5880;52.342;9.662;2022-08-24T09:13:47;28.00;38.90
11647;DHT22;5880;52.342;9.662;2022-08-24T09:22:12;28.30;37.80
11647;DHT22;5880;52.342;9.662;2022-08-24T09:27:41;28.30;37.20
11647;DHT22;5880;52.342;9.662;2022-08-24T09:30:20;28.40;37.40
11647;DHT22;5880;52.342;9.662;2022-08-24T09:33:22;28.50;37.50
11647;DHT22;5880;52.342;9.662;2022-08-24T09:36:17;28.50;37.00
11647;DHT22;5880;52.342;9.662;2022-08-24T09:39:15;28.60;36.80
11647;DHT22;5880;52.342;9.662;2022-08-24T09:45:18;28.80;36.40
11647;DHT22;5880;52.342;9.662;2022-08-24T09:53:42;28.90;36.10
11647;DHT22;5880;52.342;9.662;2022-08-24T09:59:31;29.00;35.70
11647;DHT22;5880;52.342;9.662;2022-08-24T10:05:33;29.10;35.30
11647;DHT22;5880;52.342;9.662;2022-08-24T10:08:53;29.20;35.60
11647;DHT22;5880;52.342;9.662;2022-08-24T10:11:55;29.30;35.50
11647;DHT22;5880;52.342;9.662;2022-08-24T10:30:23;29.60;35.00
11647;DHT22;5880;52.342;9.662;2022-08-24T10:33:12;29.70;34.70
11647;DHT22;5880;52.342;9.662;2022-08-24T10:42:28;30.10;34.20
11647;DHT22;5880;52.342;9.662;2022-08-24T10:51:33;30.40;32.40
11647;DHT22;5880;52.342;9.662;2022-08-24T10:54:35;30.50;32.40
11647;DHT22;5880;52.342;9.662;2022-08-24T11:00:11;30.50;32.80
11647;DHT22;5880;52.342;9.662;2022-08-24T11:02:42;30.60;32.20
11647;DHT22;5880;52.342;9.662;2022-08-24T11:05:14;30.60;32.50
11647;DHT22;5880;52.342;9.662;2022-08-24T11:08:00;30.60;32.00
11647;DHT22;5880;52.342;9.662;2022-08-24T11:10:31;30.70;31.60
11647;DHT22;5880;52.342;9.662;2022-08-24T11:15:51;30.70;30.90
11647;DHT22;5880;52.342;9.662;2022-08-24T11:18:20;30.70;31.00
11647;DHT22;5880;52.342;9.662;2022-08-24T11:20:48;30.80;30.90
11647;DHT22;5880;52.342;9.662;2022-08-24T11:23:22;30.80;31.20
11647;DHT22;5880;52.342;9.662;2022-08-24T11:26:05;30.80;30.50
11647;DHT22;5880;52.342;9.662;2022-08-24T11:28:51;30.80;30.70
11647;DHT22;5880;52.342;9.662;2022-08-24T11:31:30;30.80;29.20
11647;DHT22;5880;52.342;9.662;2022-08-24T11:34:06;30.80;29.80
11647;DHT22;5880;52.342;9.662;2022-08-24T11:36:40;30.90;30.50
11647;DHT22;5880;52.342;9.662;2022-08-24T11:39:13;30.90;30.50
11647;DHT22;5880;52.342;9.662;2022-08-24T11:51:04;30.90;30.20
11647;DHT22;5880;52.342;9.662;2022-08-24T12:02:31;31.00;28.50
11647;DHT22;5880;52.342;9.662;2022-08-24T12:11:22;31.00;29.70
11647;DHT22;5880;52.342;9.662;2022-08-24T12:14:20;31.10;29.30
11647;DHT22;5880;52.342;9.662;2022-08-24T12:17:18;31.10;29.30
11647;DHT22;5880;52.342;9.662;2022-08-24T12:20:03;31.10;28.60
11647;DHT22;5880;52.342;9.662;2022-08-24T12:22:39;31.10;29.10
11647;DHT22;5880;52.342;9.662;2022-08-24T12:25:08;31.10;29.60
11647;DHT22;5880;52.342;9.662;2022-08-24T12:27:57;31.20;29.20
11647;DHT22;5880;52.342;9.662;2022-08-24T12:30:24;31.20;29.50
11647;DHT22;5880;52.342;9.662;2022-08-24T12:32:55;31.30;29.20
11647;DHT22;5880;52.342;9.662;2022-08-24T12:35:31;31.30;29.10
11647;DHT22;5880;52.342;9.662;2022-08-24T12:38:42;31.40;29.00
11647;DHT22;5880;52.342;9.662;2022-08-24T12:41:33;31.40;28.90
11647;DHT22;5880;52.342;9.662;2022-08-24T12:44:10;31.50;28.20
11647;DHT22;5880;52.342;9.662;2022-08-24T12:46:39;31.50;29.20
11647;DHT22;5880;52.342;9.662;2022-08-24T12:49:31;31.50;29.40
11647;DHT22;5880;52.342;9.662;2022-08-24T12:52:25;31.50;28.40
11647;DHT22;5880;52.342;9.662;2022-08-24T12:57:49;31.60;28.70
11647;DHT22;5880;52.342;9.662;2022-08-24T13:00:34;31.70;28.70
11647;DHT22;5880;52.342;9.662;2022-08-24T13:03:07;31.80;28.40
11647;DHT22;5880;52.342;9.662;2022-08-24T13:05:57;31.80;28.70
11647;DHT22;5880;52.342;9.662;2022-08-24T13:08:37;31.90;28.70
11647;DHT22;5880;52.342;9.662;2022-08-24T13:16:47;32.00;28.60
11647;DHT22;5880;52.342;9.662;2022-08-24T13:25:00;32.00;27.80
11647;DHT22;5880;52.342;9.662;2022-08-24T13:27:45;32.10;28.10
11647;DHT22;5880;52.342;9.662;2022-08-24T13:30:23;32.10;28.30
11647;DHT22;5880;52.342;9.662;2022-08-24T13:33:08;32.10;27.60
11647;DHT22;5880;52.342;9.662;2022-08-24T13:40:52;32.10;26.70
11647;DHT22;5880;52.342;9.662;2022-08-24T13:46:44;32.20;27.20
11647;DHT22;5880;52.342;9.662;2022-08-24T13:49:58;32.20;27.10
11647;DHT22;5880;52.342;9.662;2022-08-24T13:52:49;32.30;27.20
11647;DHT22;5880;52.342;9.662;2022-08-24T13:55:36;32.30;27.30
11647;DHT22;5880;52.342;9.662;2022-08-24T14:07:53;32.40;26.90
11647;DHT22;5880;52.342;9.662;2022-08-24T14:16:37;32.40;26.70
11647;DHT22;5880;52.342;9.662;2022-08-24T14:25:24;32.40;25.60
11647;DHT22;5880;52.342;9.662;2022-08-24T14:38:35;32.50;25.70
11647;DHT22;5880;52.342;9.662;2022-08-24T14:43:51;32.50;25.50
11647;DHT22;5880;52.342;9.662;2022-08-24T14:56:06;32.60;25.40
11647;DHT22;5880;52.342;9.662;2022-08-24T14:59:01;32.60;25.50
11647;DHT22;5880;52.342;9.662;2022-08-24T15:01:37;32.50;25.60
11647;DHT22;5880;52.342;9.662;2022-08-24T15:07:26;32.50;25.50
11647;DHT22;5880;52.342;9.662;2022-08-24T15:09:54;32.50;25.50
11647;DHT22;5880;52.342;9.662;2022-08-24T15:12:37;32.50;26.10
11647;DHT22;5880;52.342;9.662;2022-08-24T15:15:28;32.40;26.20
11647;DHT22;5880;52.342;9.662;2022-08-24T15:18:04;32.50;26.10
11647;DHT22;5880;52.342;9.662;2022-08-24T15:27:00;32.40;25.60
11647;DHT22;5880;52.342;9.662;2022-08-24T15:29:45;32.40;25.50
11647;DHT22;5880;52.342;9.662;2022-08-24T15:32:24;32.40;25.80
11647;DHT22;5880;52.342;9.662;2022-08-24T15:35:03;32.40;25.60
11647;DHT22;5880;52.342;9.662;2022-08-24T15:37:33;32.30;25.50
11647;DHT22;5880;52.342;9.662;2022-08-24T15:40:03;32.30;25.50
11647;DHT22;5880;52.342;9.662;2022-08-24T15:42:32;32.30;25.40
11647;DHT22;5880;52.342;9.662;2022-08-24T15:45:02;32.20;25.50
11647;DHT22;5880;52.342;9.662;2022-08-24T15:47:32;32.20;25.50
11647;DHT22;5880;52.342;9.662;2022-08-24T15:50:02;32.20;25.50
11647;DHT22;5880;52.342;9.662;2022-08-24T15:55:15;32.10;25.50
11647;DHT22;5880;52.342;9.662;2022-08-24T15:57:58;32.10;25.40
11647;DHT22;5880;52.342;9.662;2022-08-24T16:00:45;32.10;25.60
11647;DHT22;5880;52.342;9.662;2022-08-24T16:12:05;32.00;25.60
11647;DHT22;5880;52.342;9.662;2022-08-24T16:14:47;32.00;25.70
11647;DHT22;5880;52.342;9.662;2022-08-24T16:17:27;32.00;25.90
11647;DHT22;5880;52.342;9.662;2022-08-24T16:20:06;32.00;25.80
11647;DHT22;5880;52.342;9.662;2022-08-24T16:22:48;31.90;25.50
11647;DHT22;5880;52.342;9.662;2022-08-24T16:30:41;31.80;25.70
11647;DHT22;5880;52.342;9.662;2022-08-24T16:33:44;31.80;25.50
11647;DHT22;5880;52.342;9.662;2022-08-24T16:36:16;31.80;25.60
11647;DHT22;5880;52.342;9.662;2022-08-24T16:38:49;31.70;25.70
11647;DHT22;5880;52.342;9.662;2022-08-24T16:41:19;31.90;25.40
11647;DHT22;5880;52.342;9.662;2022-08-24T16:43:46;31.70;26.20
11647;DHT22;5880;52.342;9.662;2022-08-24T16:46:19;31.60;25.70
11647;DHT22;5880;52.342;9.662;2022-08-24T16:48:46;31.60;25.20
11647;DHT22;5880;52.342;9.662;2022-08-24T16:51:11;31.60;25.40
11647;DHT22;5880;52.342;9.662;2022-08-24T16:53:37;31.70;25.50
11647;DHT22;5880;52.342;9.662;2022-08-24T16:56:03;31.60;25.70
11647;DHT22;5880;52.342;9.662;2022-08-24T16:58:31;31.50;25.70
11647;DHT22;5880;52.342;9.662;2022-08-24T17:00:58;31.60;25.30
11647;DHT22;5880;52.342;9.662;2022-08-24T17:03:24;31.50;25.60
11647;DHT22;5880;52.342;9.662;2022-08-24T17:05:50;31.40;25.60
11647;DHT22;5880;52.342;9.662;2022-08-24T17:08:15;31.40;25.50
11647;DHT22;5880;52.342;9.662;2022-08-24T17:10:41;31.50;25.60
11647;DHT22;5880;52.342;9.662;2022-08-24T17:13:08;31.40;25.40
11647;DHT22;5880;52.342;9.662;2022-08-24T17:15:34;31.40;25.50
11647;DHT22;5880;52.342;9.662;2022-08-24T17:18:07;31.40;25.60
11647;DHT22;5880;52.342;9.662;2022-08-24T17:20:35;31.40;25.60
11647;DHT22;5880;52.342;9.662;2022-08-24T17:23:01;31.30;25.40
11647;DHT22;5880;52.342;9.662;2022-08-24T17:25:27;31.30;25.40
11647;DHT22;5880;52.342;9.662;2022-08-24T17:27:58;31.30;25.40
11647;DHT22;5880;52.342;9.662;2022-08-24T17:30:25;31.30;25.30
11647;DHT22;5880;52.342;9.662;2022-08-24T17:32:52;31.20;25.20
11647;DHT22;5880;52.342;9.662;2022-08-24T17:35:19;31.20;25.40
11647;DHT22;5880;52.342;9.662;2022-08-24T17:37:46;31.40;25.40
11647;DHT22;5880;52.342;9.662;2022-08-24T17:40:16;31.20;25.40
11647;DHT22;5880;52.342;9.662;2022-08-24T17:42:44;31.20;25.50
11647;DHT22;5880;52.342;9.662;2022-08-24T17:45:12;31.10;25.50
11647;DHT22;5880;52.342;9.662;2022-08-24T17:47:40;31.10;25.60
11647;DHT22;5880;52.342;9.662;2022-08-24T17:50:08;31.00;25.60
11647;DHT22;5880;52.342;9.662;2022-08-24T17:52:37;31.00;25.70
11647;DHT22;5880;52.342;9.662;2022-08-24T17:55:05;31.00;25.80
11647;DHT22;5880;52.342;9.662;2022-08-24T17:57:32;30.90;25.10
11647;DHT22;5880;52.342;9.662;2022-08-24T17:59:58;30.90;25.10
11647;DHT22;5880;52.342;9.662;2022-08-24T18:02:24;30.90;25.30
11647;DHT22;5880;52.342;9.662;2022-08-24T18:04:49;30.80;25.30
11647;DHT22;5880;52.342;9.662;2022-08-24T18:07:18;31.10;25.80
11647;DHT22;5880;52.342;9.662;2022-08-24T18:09:51;30.80;25.40
11647;DHT22;5880;52.342;9.662;2022-08-24T18:12:20;30.70;25.60
11647;DHT22;5880;52.342;9.662;2022-08-24T18:14:48;30.70;26.10
11647;DHT22;5880;52.342;9.662;2022-08-24T18:17:19;30.70;25.60
11647;DHT22;5880;52.342;9.662;2022-08-24T18:19:52;30.60;25.70
11647;DHT22;5880;52.342;9.662;2022-08-24T18:22:18;30.60;25.80
11647;DHT22;5880;52.342;9.662;2022-08-24T18:24:44;30.50;25.90
11647;DHT22;5880;52.342;9.662;2022-08-24T18:27:17;30.50;25.90
11647;DHT22;5880;52.342;9.662;2022-08-24T18:29:48;30.60;26.00
11647;DHT22;5880;52.342;9.662;2022-08-24T18:32:14;30.40;26.10
11647;DHT22;5880;52.342;9.662;2022-08-24T18:34:40;30.50;26.20
11647;DHT22;5880;52.342;9.662;2022-08-24T18:37:06;30.30;26.30
11647;DHT22;5880;52.342;9.662;2022-08-24T18:39:32;30.30;26.40
11647;DHT22;5880;52.342;9.662;2022-08-24T18:41:59;30.20;26.50
11647;DHT22;5880;52.342;9.662;2022-08-24T18:44:27;30.20;26.60
11647;DHT22;5880;52.342;9.662;2022-08-24T18:46:53;30.20;26.70
11647;DHT22;5880;52.342;9.662;2022-08-24T18:49:20;30.20;26.90
11647;DHT22;5880;52.342;9.662;2022-08-24T18:51:46;30.10;26.90
11647;DHT22;5880;52.342;9.662;2022-08-24T18:54:17;30.00;27.10
11647;DHT22;5880;52.342;9.662;2022-08-24T18:56:45;30.00;27.20
11647;DHT22;5880;52.342;9.662;2022-08-24T18:59:13;29.90;26.90
11647;DHT22;5880;52.342;9.662;2022-08-24T19:01:41;29.90;27.00
11647;DHT22;5880;52.342;9.662;2022-08-24T19:04:26;29.80;27.00
11647;DHT22;5880;52.342;9.662;2022-08-24T19:06:52;29.90;27.10
11647;DHT22;5880;52.342;9.662;2022-08-24T19:09:18;29.80;27.20
11647;DHT22;5880;52.342;9.662;2022-08-24T19:11:44;29.80;27.30
11647;DHT22;5880;52.342;9.662;2022-08-24T19:14:11;29.70;27.30
11647;DHT22;5880;52.342;9.662;2022-08-24T19:16:37;29.90;27.40
11647;DHT22;5880;52.342;9.662;2022-08-24T19:19:04;29.70;27.50
11647;DHT22;5880;52.342;9.662;2022-08-24T19:21:33;29.60;27.60
11647;DHT22;5880;52.342;9.662;2022-08-24T19:24:02;29.60;27.70
11647;DHT22;5880;52.342;9.662;2022-08-24T19:26:31;29.50;27.80